This is the latest recevied weather packets stored in our database for station/object W0BJ. If no packets are shown the sender has not sent any weather packets the latest 1 day(s).
| Time | Temp. | Humidity | Pressure | Rain* | Wind** | Luminosity | Snow |
|---|---|---|---|---|---|---|---|
| 1778001143 | 12.78° C | 70% | 1013.7 hPa | 0 mm | 0 m/s | - | - |
| 1778000897 | 12.78° C | 67% | 1013.8 hPa | 0 mm | 0 m/s | - | - |
| 1778000545 | 12.78° C | 69% | 1013.7 hPa | 0 mm | 0.45 m/s, 292° | - | - |
| 1777999999 | 12.78° C | 69% | 1013.4 hPa | 0 mm | 0 m/s | - | - |
| 1777999944 | 12.78° C | 69% | 1013.4 hPa | 0 mm | 0 m/s | - | - |
| 1777999344 | 12.78° C | 69% | 1013.3 hPa | 0 mm | 0 m/s | - | - |
| 1777999098 | 12.78° C | 65% | 1013.2 hPa | 0 mm | 2.24 m/s, 0° | - | - |
| 1777998744 | 12.78° C | 63% | 1013 hPa | 0 mm | 2.24 m/s, 18° | - | - |
| 1777998197 | 13.33° C | 61% | 1012.9 hPa | 0 mm | 3.13 m/s, 17° | - | - |
| 1777998143 | 13.33° C | 62% | 1012.8 hPa | 0 mm | 2.24 m/s, 1° | - | - |
| 1777997543 | 13.33° C | 60% | 1012.7 hPa | 0 mm | 1.34 m/s, 357° | - | - |
| 1777997299 | 13.89° C | 60% | 1012.5 hPa | 0 mm | 2.24 m/s, 67° | - | - |
| 1777996944 | 13.89° C | 58% | 1012.4 hPa | 0 mm | 0 m/s | - | - |
| 1777996398 | 14.44° C | 58% | 1012.4 hPa | 0 mm | 1.34 m/s, 17° | - | - |
| 1777996344 | 14.44° C | 57% | 1012.5 hPa | 0 mm | 2.24 m/s, 15° | - | - |
| 1777995743 | 14.44° C | 57% | 1012.5 hPa | 0 mm | 3.13 m/s, 54° | - | - |
| 1777995497 | 14.44° C | 56% | 1012.6 hPa | 0 mm | 4.02 m/s, 32° | - | - |
| 1777995145 | 14.44° C | 57% | 1012.5 hPa | 0 mm | 3.58 m/s, 28° | - | - |
| 1777994599 | 14.44° C | 58% | 1012.4 hPa | 0 mm | 3.13 m/s, 36° | - | - |
| 1777994545 | 14.44° C | 59% | 1012.4 hPa | 0 mm | 1.34 m/s, 14° | - | - |
| 1777993944 | 13.89° C | 61% | 1012.7 hPa | 0 mm | 2.24 m/s, 51° | - | - |
| 1777993698 | 13.89° C | 63% | 1012.6 hPa | 0 mm | 2.24 m/s, 11° | - | - |
| 1777993344 | 13.33° C | 66% | 1012.6 hPa | 0 mm | 3.13 m/s, 6° | - | - |
| 1777992798 | 12.78° C | 66% | 1012.6 hPa | 0.25 mm | 3.13 m/s, 6° | - | - |
| 1777992743 | 12.78° C | 66% | 1012.5 hPa | 0.25 mm | 3.58 m/s, 2° | - | - |
* Rain latest hour (hover to see other rain measurements)
** Current wind speed in m/s (hover to see current wind gust speed)